createdAt,value
2022-09-17T00:01:21.136Z,17.90
2022-09-17T00:04:25.757Z,22.90
2022-09-17T00:07:30.344Z,14.90
2022-09-17T00:10:41.661Z,14.70
2022-09-17T00:13:46.240Z,15.67
2022-09-17T00:16:50.481Z,15.37
2022-09-17T00:19:54.176Z,16.93
2022-09-17T00:22:57.809Z,14.43
2022-09-17T00:26:07.784Z,12.43
2022-09-17T00:29:13.166Z,11.87
2022-09-17T00:32:16.875Z,17.20
2022-09-17T00:35:20.724Z,13.57
2022-09-17T00:38:24.382Z,14.63
2022-09-17T00:41:32.333Z,16.07
2022-09-17T00:44:53.120Z,16.47
2022-09-17T00:48:01.220Z,15.47
2022-09-17T00:51:10.341Z,15.13
2022-09-17T00:54:15.192Z,13.80
2022-09-17T00:57:21.011Z,18.00
2022-09-17T01:00:25.009Z,17.10
2022-09-17T01:03:29.072Z,18.67
2022-09-17T01:06:40.288Z,13.17
2022-09-17T01:09:55.557Z,14.23
2022-09-17T01:13:14.500Z,16.33
2022-09-17T01:16:30.900Z,14.83
2022-09-17T01:20:46.637Z,18.57
2022-09-17T01:24:33.960Z,13.13
2022-09-17T01:28:34.106Z,17.97
2022-09-17T01:31:51.213Z,15.17
2022-09-17T01:35:04.413Z,15.50
2022-09-17T01:38:16.821Z,14.07
2022-09-17T01:41:33.966Z,13.60
2022-09-17T01:44:46.591Z,18.67
2022-09-17T01:47:59.628Z,13.10
2022-09-17T01:51:10.446Z,15.77
2022-09-17T01:54:23.050Z,16.00
2022-09-17T01:57:36.854Z,17.50
2022-09-17T02:00:46.781Z,16.33
2022-09-17T02:04:02.563Z,24.13
2022-09-17T02:07:13.129Z,16.83
2022-09-17T02:10:22.056Z,22.73
2022-09-17T02:13:33.123Z,15.17
2022-09-17T02:16:43.428Z,8.67
2022-09-17T02:19:49.231Z,10.27
2022-09-17T02:22:59.203Z,10.27
2022-09-17T02:26:10.991Z,13.23
2022-09-17T02:29:27.351Z,9.97
2022-09-17T02:32:31.137Z,7.10
2022-09-17T02:35:36.678Z,10.43
2022-09-17T02:38:43.038Z,10.00
2022-09-17T02:41:59.535Z,12.20
2022-09-17T02:45:17.532Z,9.30
2022-09-17T02:48:57.326Z,5.77
2022-09-17T02:52:19.043Z,7.03
2022-09-17T02:55:33.130Z,4.23
2022-09-17T02:58:46.932Z,9.13
2022-09-17T03:02:01.353Z,8.77
2022-09-17T03:05:07.840Z,10.33
2022-09-17T03:08:16.236Z,9.60
2022-09-17T03:11:19.846Z,5.30
2022-09-17T03:14:23.444Z,6.83
2022-09-17T03:17:27.155Z,10.80
2022-09-17T03:20:30.735Z,8.40
2022-09-17T03:23:36.447Z,10.40
2022-09-17T03:26:40.158Z,7.33
2022-09-17T03:29:43.935Z,6.73
2022-09-17T03:32:47.962Z,7.67
2022-09-17T03:35:51.788Z,12.07
2022-09-17T03:38:57.931Z,11.77
2022-09-17T03:42:01.750Z,9.80
2022-09-17T03:45:05.902Z,14.73
2022-09-17T03:48:09.523Z,11.20
2022-09-17T03:51:13.550Z,11.27
2022-09-17T03:54:18.785Z,12.37
2022-09-17T03:57:22.858Z,14.47
2022-09-17T04:00:26.666Z,10.80
2022-09-17T04:03:30.387Z,14.43
2022-09-17T04:06:34.001Z,8.40
2022-09-17T04:09:39.375Z,11.93
2022-09-17T04:12:43.067Z,14.47
2022-09-17T04:15:47.816Z,13.67
2022-09-17T04:18:51.455Z,11.70
2022-09-17T04:21:55.105Z,9.50
2022-09-17T04:25:00.081Z,12.70
2022-09-17T04:28:04.216Z,11.07
2022-09-17T04:31:07.967Z,11.40
2022-09-17T04:34:11.508Z,11.23
2022-09-17T04:37:15.212Z,13.00
2022-09-17T04:40:20.167Z,10.50
2022-09-17T04:43:25.413Z,9.77
2022-09-17T04:46:29.025Z,12.77
2022-09-17T04:49:32.919Z,11.43
2022-09-17T04:52:36.486Z,14.60
2022-09-17T04:55:41.496Z,11.13
2022-09-17T04:58:44.991Z,12.73
2022-09-17T05:01:49.562Z,10.33
2022-09-17T05:04:53.160Z,12.23
2022-09-17T05:07:56.835Z,10.83
2022-09-17T05:11:01.737Z,7.27
2022-09-17T05:14:05.348Z,10.90
2022-09-17T05:17:09.063Z,9.47
2022-09-17T05:20:14.136Z,10.80
2022-09-17T05:23:17.852Z,15.43
2022-09-17T05:26:22.931Z,13.53
2022-09-17T05:29:27.448Z,7.13
2022-09-17T05:32:31.235Z,9.50
2022-09-17T05:35:36.972Z,10.30
2022-09-17T05:38:40.542Z,8.97
2022-09-17T05:41:45.479Z,9.27
2022-09-17T05:44:49.058Z,10.07
2022-09-17T05:47:57.683Z,5.13
2022-09-17T05:51:01.207Z,11.60
2022-09-17T05:54:05.155Z,10.67
2022-09-17T05:57:10.177Z,10.43
2022-09-17T06:00:15.590Z,12.40
2022-09-17T06:03:22.633Z,16.00
2022-09-17T06:06:29.494Z,13.80
2022-09-17T06:09:33.079Z,10.20
2022-09-17T06:12:38.163Z,10.23
2022-09-17T06:15:41.711Z,13.10
2022-09-17T06:18:45.259Z,9.27
2022-09-17T06:21:50.464Z,13.50
2022-09-17T06:24:54.034Z,17.30
2022-09-17T06:27:58.915Z,12.23
2022-09-17T06:31:03.401Z,15.77
2022-09-17T06:34:06.979Z,11.97
2022-09-17T06:37:10.549Z,8.73
2022-09-17T06:40:14.241Z,9.33
2022-09-17T06:43:20.655Z,13.20
2022-09-17T06:46:24.331Z,17.33
2022-09-17T06:49:28.919Z,12.30
2022-09-17T06:52:32.728Z,10.70
2022-09-17T06:55:36.391Z,13.97
2022-09-17T06:58:42.031Z,9.87
2022-09-17T07:01:45.830Z,11.80
2022-09-17T07:04:49.451Z,12.63
2022-09-17T07:07:53.388Z,16.03
2022-09-17T07:10:57.967Z,16.37
2022-09-17T07:14:03.056Z,11.73
2022-09-17T07:17:07.394Z,12.77
2022-09-17T07:20:12.343Z,11.27
2022-09-17T07:23:16.040Z,14.07
2022-09-17T07:26:19.627Z,13.80
2022-09-17T07:29:26.450Z,16.50
2022-09-17T07:32:32.087Z,10.20
2022-09-17T07:35:35.712Z,14.07
2022-09-17T07:38:39.753Z,11.13
2022-09-17T07:41:43.277Z,10.73
2022-09-17T07:44:48.345Z,11.70
2022-09-17T07:47:51.939Z,11.63
2022-09-17T07:50:55.844Z,12.70
2022-09-17T07:54:02.398Z,10.37
2022-09-17T07:57:06.655Z,9.10
2022-09-17T08:00:15.051Z,9.67
2022-09-17T08:03:18.839Z,14.30
2022-09-17T08:06:26.245Z,10.93
2022-09-17T08:09:29.768Z,10.17
2022-09-17T08:12:33.535Z,10.10
2022-09-17T08:15:38.438Z,8.73
2022-09-17T08:18:43.059Z,9.73
2022-09-17T08:21:46.579Z,10.90
2022-09-17T08:24:50.412Z,8.07
2022-09-17T08:27:56.182Z,9.87
2022-09-17T08:31:05.519Z,8.07
2022-09-17T08:34:10.425Z,7.70
2022-09-17T08:37:14.094Z,5.50
2022-09-17T08:40:23.187Z,6.13
2022-09-17T08:43:29.888Z,10.83
2022-09-17T08:46:44.141Z,8.67
2022-09-17T08:49:54.967Z,7.53
2022-09-17T08:53:29.027Z,9.37
2022-09-17T08:56:38.149Z,5.23
2022-09-17T08:59:53.934Z,10.17
2022-09-17T09:03:25.615Z,7.27
2022-09-17T09:06:36.380Z,4.23
2022-09-17T09:09:47.843Z,6.03
2022-09-17T09:12:53.060Z,5.63
2022-09-17T09:16:01.982Z,4.50
2022-09-17T09:19:23.114Z,7.27
2022-09-17T09:22:49.738Z,9.63
2022-09-17T09:26:11.343Z,5.07
2022-09-17T09:29:29.151Z,4.73
2022-09-17T09:32:57.719Z,8.70
2022-09-17T09:36:03.518Z,6.00
2022-09-17T09:39:18.825Z,6.37
2022-09-17T09:42:31.947Z,5.00
2022-09-17T09:45:51.711Z,4.80
2022-09-17T09:49:11.783Z,3.93
2022-09-17T09:52:45.752Z,2.93
2022-09-17T09:56:08.039Z,2.97
2022-09-17T09:59:13.904Z,3.83
2022-09-17T10:02:17.544Z,4.40
2022-09-17T10:05:21.202Z,4.63
2022-09-17T10:08:27.590Z,5.20
2022-09-17T10:11:33.606Z,2.57
2022-09-17T10:14:39.715Z,4.13
2022-09-17T10:17:43.262Z,5.60
2022-09-17T10:20:59.475Z,5.30
2022-09-17T10:24:13.384Z,2.83
2022-09-17T10:27:20.555Z,5.23
2022-09-17T10:30:26.052Z,3.03
2022-09-17T10:33:31.706Z,4.67
2022-09-17T10:36:44.718Z,3.93
2022-09-17T10:39:49.692Z,2.20
2022-09-17T10:43:23.184Z,4.53
2022-09-17T10:46:33.920Z,4.70
2022-09-17T10:49:42.725Z,3.07
2022-09-17T10:52:52.012Z,3.97
2022-09-17T10:56:14.286Z,4.83
2022-09-17T10:59:52.582Z,3.93
2022-09-17T11:03:58.075Z,5.43
2022-09-17T11:07:36.017Z,5.53
2022-09-17T11:10:54.961Z,4.73
2022-09-17T11:14:16.319Z,6.53
2022-09-17T11:17:44.368Z,8.17
2022-09-17T11:21:18.143Z,8.17
2022-09-17T11:25:18.944Z,6.00
2022-09-17T11:28:53.746Z,4.17
2022-09-17T11:32:11.296Z,6.83
2022-09-17T11:35:21.678Z,8.57
2022-09-17T11:38:31.681Z,6.80
2022-09-17T11:41:42.593Z,8.50
2022-09-17T11:44:54.283Z,8.90
2022-09-17T11:48:08.838Z,6.83
2022-09-17T11:51:34.475Z,5.50
2022-09-17T11:54:45.431Z,6.63
2022-09-17T11:57:53.196Z,6.53
2022-09-17T12:01:05.728Z,8.43
2022-09-17T12:04:37.738Z,7.87
2022-09-17T12:07:52.003Z,6.03
2022-09-17T12:11:07.895Z,6.53
2022-09-17T12:14:23.308Z,6.90
2022-09-17T12:17:39.208Z,5.13
2022-09-17T12:20:50.720Z,6.23
2022-09-17T12:24:01.302Z,6.23
2022-09-17T12:27:35.357Z,7.57
2022-09-17T12:30:44.361Z,6.43
2022-09-17T12:33:55.208Z,7.30
2022-09-17T12:37:12.094Z,4.73
2022-09-17T12:40:35.016Z,10.13
2022-09-17T12:44:02.875Z,8.60
2022-09-17T12:47:30.380Z,3.30
2022-09-17T12:50:54.839Z,8.53
2022-09-17T12:54:14.411Z,7.17
2022-09-17T12:57:37.752Z,6.43
2022-09-17T13:00:49.319Z,10.23
2022-09-17T13:03:59.450Z,13.73
2022-09-17T13:07:48.051Z,10.30
2022-09-17T13:12:04.089Z,14.83
2022-09-17T13:15:42.617Z,8.23
2022-09-17T13:19:15.485Z,12.43
2022-09-17T13:22:23.441Z,10.70
2022-09-17T13:25:28.519Z,5.40
2022-09-17T13:28:46.712Z,8.73
2022-09-17T13:31:51.481Z,4.90
2022-09-17T13:34:55.109Z,10.07
2022-09-17T13:38:00.616Z,9.80
2022-09-17T13:41:21.802Z,7.17
2022-09-17T13:44:26.981Z,6.87
2022-09-17T13:47:33.635Z,5.77
2022-09-17T13:50:40.397Z,2.33
2022-09-17T13:53:55.970Z,5.03
2022-09-17T13:57:17.360Z,5.90
2022-09-17T14:00:54.312Z,8.33
2022-09-17T14:03:57.951Z,6.50
2022-09-17T14:07:01.641Z,10.50
2022-09-17T14:10:43.423Z,12.43
2022-09-17T14:13:47.172Z,10.87
2022-09-17T14:16:52.842Z,9.30
2022-09-17T14:19:57.110Z,10.63
2022-09-17T14:23:03.405Z,6.33
2022-09-17T14:26:19.226Z,11.37
2022-09-17T14:30:01.551Z,9.93
2022-09-17T14:33:17.498Z,9.07
2022-09-17T14:36:24.786Z,9.60
2022-09-17T14:39:40.362Z,9.93
2022-09-17T14:42:45.397Z,11.37
2022-09-17T14:45:53.650Z,6.43
2022-09-17T14:49:16.764Z,8.43
2022-09-17T14:52:28.264Z,12.60
2022-09-17T14:55:33.585Z,14.90
2022-09-17T14:58:44.286Z,10.03
2022-09-17T15:01:50.211Z,9.73
2022-09-17T15:04:55.514Z,11.77
2022-09-17T15:08:19.148Z,10.80
2022-09-17T15:11:22.939Z,17.00
2022-09-17T15:14:31.163Z,10.07
2022-09-17T15:17:36.579Z,13.40
2022-09-17T15:20:41.648Z,9.90
2022-09-17T15:23:47.567Z,8.03
2022-09-17T15:26:57.981Z,5.50
2022-09-17T15:30:06.774Z,7.93
2022-09-17T15:33:13.574Z,4.97
2022-09-17T15:36:22.966Z,9.20
2022-09-17T15:39:40.392Z,7.93
2022-09-17T15:42:53.250Z,8.87
2022-09-17T15:45:58.305Z,7.70
2022-09-17T15:49:04.234Z,5.97
2022-09-17T15:52:32.817Z,14.80
2022-09-17T15:55:40.931Z,9.23
2022-09-17T15:59:01.646Z,10.07
2022-09-17T16:02:07.214Z,10.00
2022-09-17T16:05:46.971Z,10.97
2022-09-17T16:08:54.239Z,6.83
2022-09-17T16:11:57.887Z,8.57
2022-09-17T16:15:02.831Z,5.33
2022-09-17T16:18:07.387Z,8.83
2022-09-17T16:21:12.916Z,6.53
2022-09-17T16:24:17.897Z,9.57
2022-09-17T16:27:27.623Z,7.90
2022-09-17T16:30:31.506Z,8.57
2022-09-17T16:33:35.135Z,6.50
2022-09-17T16:36:39.564Z,4.83
2022-09-17T16:39:44.704Z,6.17
2022-09-17T16:42:48.872Z,6.83
2022-09-17T16:46:00.738Z,5.50
2022-09-17T16:49:04.368Z,8.93
2022-09-17T16:52:07.969Z,10.17
2022-09-17T16:55:15.235Z,9.23
2022-09-17T16:58:19.289Z,11.13
2022-09-17T17:01:23.640Z,12.07
2022-09-17T17:04:27.322Z,4.07
2022-09-17T17:07:32.045Z,12.13
2022-09-17T17:10:38.467Z,11.13
2022-09-17T17:13:44.346Z,6.97
2022-09-17T17:16:47.851Z,10.47
2022-09-17T17:19:51.397Z,7.93
2022-09-17T17:22:56.160Z,9.30
2022-09-17T17:26:01.467Z,7.50
2022-09-17T17:29:05.204Z,8.80
2022-09-17T17:32:09.739Z,7.63
2022-09-17T17:35:13.731Z,9.87
2022-09-17T17:38:19.087Z,8.90
2022-09-17T17:41:26.314Z,10.53
2022-09-17T17:44:29.958Z,13.17
2022-09-17T17:47:33.688Z,11.80
2022-09-17T17:50:37.303Z,15.23
2022-09-17T17:53:44.258Z,12.27
2022-09-17T17:56:49.248Z,13.53
2022-09-17T17:59:52.779Z,18.60
2022-09-17T18:02:56.636Z,12.80
2022-09-17T18:06:00.656Z,13.30
2022-09-17T18:09:05.487Z,15.73
2022-09-17T18:12:10.610Z,9.90
2022-09-17T18:15:34.360Z,12.93
2022-09-17T18:18:44.348Z,12.50
2022-09-17T18:21:48.746Z,16.13
2022-09-17T18:24:52.396Z,17.23
2022-09-17T18:27:57.334Z,6.97
2022-09-17T18:31:07.426Z,8.70
2022-09-17T18:34:16.565Z,9.67
2022-09-17T18:37:20.360Z,23.50
2022-09-17T18:40:24.040Z,9.23
2022-09-17T18:43:29.054Z,14.87
2022-09-17T18:46:32.825Z,11.73
2022-09-17T18:49:36.618Z,17.93
2022-09-17T18:52:40.228Z,11.70
2022-09-17T18:55:48.132Z,9.17
2022-09-17T18:58:55.453Z,11.60
2022-09-17T19:01:59.089Z,9.03
2022-09-17T19:05:03.299Z,11.27
2022-09-17T19:08:06.935Z,12.17
2022-09-17T19:11:10.992Z,12.47
2022-09-17T19:14:16.134Z,14.30
2022-09-17T19:17:19.806Z,17.33
2022-09-17T19:20:23.811Z,15.93
2022-09-17T19:23:27.393Z,14.77
2022-09-17T19:26:31.023Z,16.13
2022-09-17T19:29:36.046Z,16.20
2022-09-17T19:32:43.100Z,14.23
2022-09-17T19:35:46.857Z,17.63
2022-09-17T19:38:50.839Z,11.23
2022-09-17T19:41:54.381Z,15.03
2022-09-17T19:44:59.379Z,23.70
2022-09-17T19:48:03.662Z,16.60
2022-09-17T19:51:07.738Z,16.30
2022-09-17T19:54:11.618Z,8.90
2022-09-17T19:57:15.376Z,13.33
2022-09-17T20:00:20.480Z,15.03
2022-09-17T20:03:24.383Z,14.03
2022-09-17T20:06:28.075Z,12.90
2022-09-17T20:09:33.144Z,8.63
2022-09-17T20:12:37.023Z,14.30
2022-09-17T20:15:42.636Z,12.77
2022-09-17T20:18:46.442Z,15.57
2022-09-17T20:21:50.848Z,9.37
2022-09-17T20:24:54.476Z,12.03
2022-09-17T20:27:58.128Z,10.40
2022-09-17T20:31:05.302Z,13.53
2022-09-17T20:34:08.977Z,12.10
2022-09-17T20:37:13.826Z,11.00
2022-09-17T20:40:17.885Z,13.43
2022-09-17T20:43:21.654Z,13.30
2022-09-17T20:46:29.610Z,10.20
2022-09-17T20:49:33.554Z,13.60
2022-09-17T20:52:37.246Z,12.20
2022-09-17T20:55:40.843Z,12.20
2022-09-17T20:58:48.943Z,11.23
2022-09-17T21:01:56.034Z,12.30
2022-09-17T21:04:59.727Z,14.40
2022-09-17T21:08:03.873Z,13.07
2022-09-17T21:11:07.574Z,6.20
2022-09-17T21:14:11.960Z,8.60
2022-09-17T21:17:17.001Z,12.53
2022-09-17T21:20:20.588Z,8.03
2022-09-17T21:23:25.646Z,12.97
2022-09-17T21:26:29.929Z,6.73
2022-09-17T21:29:33.555Z,10.13
2022-09-17T21:32:38.971Z,8.07
2022-09-17T21:35:42.576Z,10.73
2022-09-17T21:38:46.595Z,9.63
2022-09-17T21:41:50.191Z,8.17
2022-09-17T21:44:54.350Z,9.37
2022-09-17T21:47:59.731Z,6.10
2022-09-17T21:51:05.871Z,7.47
2022-09-17T21:54:12.119Z,10.07
2022-09-17T21:57:15.682Z,10.30
2022-09-17T22:00:23.150Z,11.73
2022-09-17T22:03:28.504Z,7.10
2022-09-17T22:06:33.364Z,7.87
2022-09-17T22:09:36.932Z,7.93
2022-09-17T22:12:40.506Z,6.23
2022-09-17T22:15:44.078Z,5.60
2022-09-17T22:18:51.757Z,11.67
2022-09-17T22:21:57.252Z,7.47
2022-09-17T22:25:00.883Z,10.93
2022-09-17T22:28:20.416Z,8.80
2022-09-17T22:31:26.239Z,9.33
2022-09-17T22:34:31.255Z,7.50
2022-09-17T22:37:34.882Z,7.33
2022-09-17T22:40:38.513Z,8.20
2022-09-17T22:43:42.282Z,5.33
2022-09-17T22:46:48.133Z,11.37
2022-09-17T22:49:53.121Z,11.57
2022-09-17T22:52:56.712Z,10.13
2022-09-17T22:56:01.170Z,11.23
2022-09-17T22:59:05.687Z,4.70
2022-09-17T23:02:09.511Z,6.77
2022-09-17T23:05:14.633Z,11.30
2022-09-17T23:08:18.282Z,11.30
2022-09-17T23:11:24.474Z,12.50
2022-09-17T23:14:28.418Z,8.53
2022-09-17T23:17:31.965Z,10.03
2022-09-17T23:20:37.043Z,5.60
2022-09-17T23:23:42.192Z,6.00
2022-09-17T23:26:45.744Z,7.70
2022-09-17T23:29:49.264Z,9.73
2022-09-17T23:32:55.068Z,8.33
2022-09-17T23:36:06.400Z,7.70
2022-09-17T23:39:12.460Z,8.17
2022-09-17T23:42:16.287Z,4.83
2022-09-17T23:45:20.023Z,5.90
2022-09-17T23:48:23.640Z,8.13
2022-09-17T23:51:31.786Z,9.00
2022-09-17T23:54:35.515Z,10.17
2022-09-17T23:57:39.199Z,10.70
